createdAt,value
2023-01-30T00:00:37.350Z,83.71
2023-01-30T00:03:03.823Z,84.23
2023-01-30T00:05:30.284Z,83.89
2023-01-30T00:07:56.703Z,84.11
2023-01-30T00:10:25.800Z,85.01
2023-01-30T00:12:52.482Z,84.86
2023-01-30T00:15:18.875Z,85.48
2023-01-30T00:17:45.239Z,85.28
2023-01-30T00:20:13.639Z,85.08
2023-01-30T00:22:49.321Z,86.04
2023-01-30T00:25:22.313Z,85.16
2023-01-30T00:27:48.702Z,85.57
2023-01-30T00:30:15.276Z,85.40
2023-01-30T00:32:41.670Z,85.18
2023-01-30T00:35:08.220Z,86.09
2023-01-30T00:37:34.751Z,85.44
2023-01-30T00:40:01.161Z,85.44
2023-01-30T00:42:46.076Z,85.21
2023-01-30T00:45:31.485Z,86.02
2023-01-30T00:47:59.927Z,86.35
2023-01-30T00:50:42.215Z,85.85
2023-01-30T00:53:12.878Z,85.02
2023-01-30T00:55:40.459Z,86.01
2023-01-30T00:58:07.325Z,84.98
2023-01-30T01:00:33.862Z,86.08
2023-01-30T01:03:00.604Z,85.74
2023-01-30T01:05:28.251Z,85.54
2023-01-30T01:07:55.567Z,85.33
2023-01-30T01:10:23.489Z,85.35
2023-01-30T01:12:52.265Z,86.27
2023-01-30T01:15:20.081Z,86.48
2023-01-30T01:17:48.880Z,87.04
2023-01-30T01:20:16.357Z,87.76
2023-01-30T01:22:42.841Z,88.00
2023-01-30T01:25:10.583Z,87.86
2023-01-30T01:27:38.681Z,87.89
2023-01-30T01:30:06.177Z,87.63
2023-01-30T01:32:32.928Z,88.11
2023-01-30T01:34:59.327Z,88.76
2023-01-30T01:37:25.864Z,88.63
2023-01-30T01:40:10.687Z,87.92
2023-01-30T01:42:38.766Z,88.17
2023-01-30T01:45:11.586Z,88.29
2023-01-30T01:47:41.558Z,88.01
2023-01-30T01:50:15.089Z,88.44
2023-01-30T01:52:43.735Z,88.26
2023-01-30T01:55:11.659Z,89.03
2023-01-30T01:57:43.973Z,88.70
2023-01-30T02:00:12.292Z,88.59
2023-01-30T02:02:50.968Z,89.04
2023-01-30T02:05:19.160Z,88.29
2023-01-30T02:07:45.681Z,89.01
2023-01-30T02:10:17.714Z,88.64
2023-01-30T02:12:45.403Z,87.96
2023-01-30T02:15:11.913Z,88.11
2023-01-30T02:17:39.262Z,87.85
2023-01-30T02:20:32.064Z,88.49
2023-01-30T02:23:21.667Z,87.85
2023-01-30T02:26:01.116Z,88.14
2023-01-30T02:28:59.157Z,88.12
2023-01-30T02:31:49.545Z,87.48
2023-01-30T02:34:35.928Z,87.45
2023-01-30T02:37:31.332Z,87.77
2023-01-30T02:40:15.527Z,87.11
2023-01-30T02:43:00.632Z,87.17
2023-01-30T02:45:41.781Z,87.30
2023-01-30T02:48:16.713Z,87.45
2023-01-30T02:50:53.864Z,87.49
2023-01-30T02:53:20.811Z,87.35
2023-01-30T02:55:47.402Z,86.86
2023-01-30T02:58:16.314Z,87.52
2023-01-30T03:01:30.989Z,87.48
2023-01-30T03:04:00.381Z,87.36
2023-01-30T03:06:42.488Z,87.47
2023-01-30T03:09:18.231Z,87.45
2023-01-30T03:11:53.864Z,86.96
2023-01-30T03:14:26.655Z,87.34
2023-01-30T03:16:56.893Z,87.06
2023-01-30T03:19:23.326Z,87.04
2023-01-30T03:21:49.804Z,87.49
2023-01-30T03:24:17.698Z,87.30
2023-01-30T03:26:58.825Z,87.58
2023-01-30T03:29:26.096Z,87.60
2023-01-30T03:31:52.603Z,87.24
2023-01-30T03:34:19.084Z,87.01
2023-01-30T03:36:47.653Z,87.93
2023-01-30T03:39:15.438Z,87.90
2023-01-30T03:41:42.482Z,87.52
2023-01-30T03:44:09.222Z,88.19
2023-01-30T03:46:35.606Z,87.89
2023-01-30T03:49:02.053Z,88.30
2023-01-30T03:51:28.496Z,88.87
2023-01-30T03:53:55.588Z,88.99
2023-01-30T03:56:22.252Z,88.55
2023-01-30T03:58:48.664Z,88.59
2023-01-30T04:01:18.323Z,89.01
2023-01-30T04:03:44.806Z,89.32
2023-01-30T04:06:11.256Z,89.39
2023-01-30T04:08:37.736Z,89.05
2023-01-30T04:11:05.479Z,89.15
2023-01-30T04:13:31.984Z,89.52
2023-01-30T04:16:26.853Z,90.31
2023-01-30T04:19:18.875Z,90.06
2023-01-30T04:21:45.648Z,90.09
2023-01-30T04:24:12.197Z,90.26
2023-01-30T04:26:38.714Z,89.93
2023-01-30T04:29:05.520Z,90.18
2023-01-30T04:31:33.392Z,91.01
2023-01-30T04:34:12.513Z,91.28
2023-01-30T04:36:39.153Z,90.61
2023-01-30T04:39:05.539Z,90.87
2023-01-30T04:41:32.663Z,91.83
2023-01-30T04:44:00.804Z,91.63
2023-01-30T04:46:36.101Z,91.47
2023-01-30T04:49:02.975Z,91.09
2023-01-30T04:51:29.620Z,91.71
2023-01-30T04:53:57.609Z,91.65
2023-01-30T04:56:23.975Z,91.77
2023-01-30T04:58:50.481Z,91.36
2023-01-30T05:01:29.457Z,91.96
2023-01-30T05:03:56.127Z,91.72
2023-01-30T05:06:23.026Z,91.74
2023-01-30T05:08:51.000Z,92.24
2023-01-30T05:11:18.230Z,91.77
2023-01-30T05:13:45.104Z,91.44
2023-01-30T05:16:12.500Z,91.99
2023-01-30T05:18:38.936Z,91.92
2023-01-30T05:21:14.940Z,91.73
2023-01-30T05:23:41.482Z,91.60
2023-01-30T05:26:08.714Z,92.30
2023-01-30T05:28:35.646Z,91.55
2023-01-30T05:31:10.691Z,92.01
2023-01-30T05:33:37.969Z,92.04
2023-01-30T05:36:05.099Z,91.96
2023-01-30T05:38:31.525Z,91.79
2023-01-30T05:41:02.778Z,92.31
2023-01-30T05:43:29.559Z,92.39
2023-01-30T05:45:58.052Z,92.23
2023-01-30T05:48:25.689Z,92.38
2023-01-30T05:50:53.840Z,92.30
2023-01-30T05:53:21.727Z,92.17
2023-01-30T05:56:02.441Z,92.09
2023-01-30T05:58:30.067Z,92.44
2023-01-30T06:01:04.911Z,92.35
2023-01-30T06:03:31.705Z,92.25
2023-01-30T06:05:58.514Z,92.46
2023-01-30T06:08:25.023Z,92.43
2023-01-30T06:10:51.457Z,92.32
2023-01-30T06:13:17.871Z,92.18
2023-01-30T06:15:44.323Z,92.07
2023-01-30T06:18:10.833Z,91.93
2023-01-30T06:20:37.203Z,91.49
2023-01-30T06:23:03.654Z,91.22
2023-01-30T06:25:30.180Z,90.82
2023-01-30T06:27:56.543Z,90.65
2023-01-30T06:30:22.944Z,90.44
2023-01-30T06:32:52.514Z,90.08
2023-01-30T06:35:19.588Z,90.16
2023-01-30T06:37:46.328Z,90.30
2023-01-30T06:40:13.189Z,90.15
2023-01-30T06:42:44.331Z,90.29
2023-01-30T06:45:11.231Z,90.35
2023-01-30T06:47:45.694Z,90.32
2023-01-30T06:50:12.460Z,90.33
2023-01-30T06:52:42.859Z,90.17
2023-01-30T06:55:11.214Z,90.34
2023-01-30T06:57:37.703Z,90.05
2023-01-30T07:00:11.875Z,89.63
2023-01-30T07:02:38.257Z,89.11
2023-01-30T07:05:06.698Z,89.08
2023-01-30T07:07:34.202Z,89.02
2023-01-30T07:10:07.868Z,89.36
2023-01-30T07:12:36.090Z,88.70
2023-01-30T07:15:03.586Z,88.86
2023-01-30T07:17:29.979Z,89.08
2023-01-30T07:19:56.334Z,88.58
2023-01-30T07:22:22.730Z,87.94
2023-01-30T07:24:49.099Z,87.52
2023-01-30T07:27:15.569Z,86.93
2023-01-30T07:29:41.949Z,87.14
2023-01-30T07:32:16.723Z,86.95
2023-01-30T07:34:43.083Z,86.69
2023-01-30T07:37:09.449Z,86.63
2023-01-30T07:39:36.116Z,86.78
2023-01-30T07:42:03.006Z,87.04
2023-01-30T07:44:29.368Z,85.98
2023-01-30T07:46:55.902Z,85.76
2023-01-30T07:49:22.508Z,85.32
2023-01-30T07:51:49.139Z,85.30
2023-01-30T07:54:16.509Z,85.10
2023-01-30T07:56:42.875Z,84.80
2023-01-30T07:59:11.205Z,84.74
2023-01-30T08:01:37.974Z,84.11
2023-01-30T08:04:04.384Z,84.19
2023-01-30T08:06:31.032Z,83.58
2023-01-30T08:08:57.518Z,82.47
2023-01-30T08:11:23.902Z,80.65
2023-01-30T08:13:50.329Z,80.69
2023-01-30T08:16:16.737Z,80.47
2023-01-30T08:18:43.206Z,79.98
2023-01-30T08:21:10.041Z,80.42
2023-01-30T08:23:36.393Z,80.68
2023-01-30T08:26:04.536Z,80.32
2023-01-30T08:28:31.308Z,80.14
2023-01-30T08:30:58.203Z,79.84
2023-01-30T08:33:25.088Z,80.03
2023-01-30T08:35:51.534Z,80.05
2023-01-30T08:38:18.523Z,79.76
2023-01-30T08:40:44.863Z,79.42
2023-01-30T08:43:11.560Z,78.85
2023-01-30T08:45:37.946Z,78.84
2023-01-30T08:48:06.241Z,79.18
2023-01-30T08:50:34.020Z,78.89
2023-01-30T08:53:09.012Z,78.94
2023-01-30T08:55:35.899Z,79.38
2023-01-30T08:58:02.478Z,78.29
2023-01-30T09:00:29.500Z,78.52
2023-01-30T09:02:56.601Z,78.06
2023-01-30T09:05:23.562Z,78.19
2023-01-30T09:07:50.808Z,78.30
2023-01-30T09:10:18.168Z,77.77
2023-01-30T09:12:44.842Z,78.43
2023-01-30T09:15:11.375Z,77.39
2023-01-30T09:17:38.376Z,78.05
2023-01-30T09:20:10.399Z,78.32
2023-01-30T09:22:37.292Z,77.48
2023-01-30T09:25:04.873Z,77.50
2023-01-30T09:27:31.305Z,77.41
2023-01-30T09:29:57.946Z,76.70
2023-01-30T09:32:24.399Z,76.33
2023-01-30T09:34:50.772Z,76.49
2023-01-30T09:37:17.147Z,76.50
2023-01-30T09:39:43.517Z,75.48
2023-01-30T09:42:36.546Z,76.72
2023-01-30T09:45:39.510Z,75.82
2023-01-30T09:48:24.352Z,74.58
2023-01-30T09:51:12.375Z,75.18
2023-01-30T09:53:50.269Z,75.89
2023-01-30T09:56:16.833Z,75.55
2023-01-30T09:59:01.329Z,74.97
2023-01-30T10:02:01.387Z,74.42
2023-01-30T10:04:33.761Z,74.61
2023-01-30T10:07:21.062Z,74.70
2023-01-30T10:10:14.397Z,73.52
2023-01-30T10:13:03.925Z,72.93
2023-01-30T10:15:54.694Z,72.68
2023-01-30T10:18:55.079Z,72.52
2023-01-30T10:21:24.439Z,73.36
2023-01-30T10:24:09.678Z,72.27
2023-01-30T10:26:36.290Z,72.57
2023-01-30T10:29:12.920Z,73.13
2023-01-30T10:31:47.108Z,73.44
2023-01-30T10:34:22.452Z,73.14
2023-01-30T10:36:55.647Z,72.13
2023-01-30T10:39:54.202Z,72.24
2023-01-30T10:42:29.035Z,72.44
2023-01-30T10:45:06.467Z,72.24
2023-01-30T10:47:49.395Z,72.13
2023-01-30T10:50:25.843Z,71.77
2023-01-30T10:53:10.252Z,71.29
2023-01-30T10:55:48.657Z,71.78
2023-01-30T10:58:35.823Z,71.73
2023-01-30T11:01:36.073Z,71.38
2023-01-30T11:04:04.544Z,71.29
2023-01-30T11:06:33.103Z,71.01
2023-01-30T11:08:59.483Z,70.72
2023-01-30T11:11:47.914Z,72.03
2023-01-30T11:14:14.328Z,70.90
2023-01-30T11:17:02.477Z,71.29
2023-01-30T11:19:34.351Z,71.96
2023-01-30T11:22:03.699Z,71.74
2023-01-30T11:24:41.030Z,71.27
2023-01-30T11:27:11.497Z,71.22
2023-01-30T11:29:40.827Z,72.26
2023-01-30T11:32:26.610Z,70.87
2023-01-30T11:35:08.083Z,72.13
2023-01-30T11:37:37.619Z,72.29
2023-01-30T11:40:23.765Z,71.08
2023-01-30T11:42:52.811Z,70.79
2023-01-30T11:45:22.918Z,72.00
2023-01-30T11:48:05.476Z,72.54
2023-01-30T11:50:43.631Z,74.67
2023-01-30T11:53:26.125Z,74.17
2023-01-30T11:56:05.328Z,75.59
2023-01-30T11:58:35.880Z,74.87
2023-01-30T12:01:03.301Z,74.31
2023-01-30T12:03:30.327Z,74.02
2023-01-30T12:05:58.824Z,72.28
2023-01-30T12:08:43.282Z,71.57
2023-01-30T12:11:45.126Z,71.68
2023-01-30T12:14:17.822Z,71.00
2023-01-30T12:16:53.792Z,70.56
2023-01-30T12:19:42.012Z,70.04
2023-01-30T12:22:24.243Z,68.83
2023-01-30T12:25:03.607Z,70.45
2023-01-30T12:28:03.544Z,69.26
2023-01-30T12:30:34.729Z,69.00
2023-01-30T12:33:04.454Z,68.22
2023-01-30T12:35:59.210Z,68.47
2023-01-30T12:38:45.069Z,68.56
2023-01-30T12:41:22.812Z,68.09
2023-01-30T12:44:04.751Z,67.72
2023-01-30T12:46:55.619Z,67.47
2023-01-30T12:49:36.605Z,67.53
2023-01-30T12:52:38.831Z,67.30
2023-01-30T12:55:31.236Z,66.96
2023-01-30T12:58:32.483Z,67.21
2023-01-30T13:01:16.386Z,66.88
2023-01-30T13:03:55.192Z,67.46
2023-01-30T13:06:40.140Z,66.91
2023-01-30T13:09:12.681Z,67.48
2023-01-30T13:11:56.253Z,66.69
2023-01-30T13:14:32.185Z,66.67
2023-01-30T13:17:35.441Z,65.43
2023-01-30T13:20:31.070Z,64.92
2023-01-30T13:23:06.101Z,65.89
2023-01-30T13:25:34.947Z,66.08
2023-01-30T13:28:14.731Z,66.49
2023-01-30T13:30:43.689Z,65.87
2023-01-30T13:33:39.062Z,65.57
2023-01-30T13:36:20.421Z,64.56
2023-01-30T13:39:10.100Z,65.32
2023-01-30T13:41:42.425Z,69.22
2023-01-30T13:44:21.491Z,69.55
2023-01-30T13:46:51.735Z,70.56
2023-01-30T13:49:25.577Z,70.63
2023-01-30T13:52:33.564Z,67.15
2023-01-30T13:55:10.082Z,66.72
2023-01-30T13:57:50.667Z,67.34
2023-01-30T14:00:20.603Z,66.82
2023-01-30T14:03:07.103Z,67.49
2023-01-30T14:05:58.971Z,66.49
2023-01-30T14:08:29.055Z,66.28
2023-01-30T14:10:57.309Z,66.92
2023-01-30T14:13:25.361Z,66.07
2023-01-30T14:16:04.326Z,65.23
2023-01-30T14:18:36.266Z,65.21
2023-01-30T14:21:14.960Z,66.61
2023-01-30T14:23:53.506Z,65.91
2023-01-30T14:26:40.156Z,65.86
2023-01-30T14:29:08.063Z,66.28
2023-01-30T14:31:49.363Z,66.87
2023-01-30T14:34:43.010Z,66.54
2023-01-30T14:37:46.677Z,65.69
2023-01-30T14:40:22.302Z,66.87
2023-01-30T14:43:16.706Z,66.42
2023-01-30T14:45:53.627Z,66.45
2023-01-30T14:48:44.395Z,66.77
2023-01-30T14:51:28.903Z,66.11
2023-01-30T14:53:58.212Z,66.05
2023-01-30T14:56:58.614Z,64.46
2023-01-30T14:59:39.804Z,65.07
2023-01-30T15:02:12.137Z,66.19
2023-01-30T15:04:52.739Z,67.58
2023-01-30T15:07:37.604Z,67.89
2023-01-30T15:10:06.903Z,66.73
2023-01-30T15:12:48.540Z,67.96
2023-01-30T15:15:31.010Z,67.44
2023-01-30T15:18:11.820Z,66.36
2023-01-30T15:21:02.878Z,67.15
2023-01-30T15:23:54.060Z,66.92
2023-01-30T15:26:46.960Z,67.13
2023-01-30T15:30:00.118Z,66.59
2023-01-30T15:32:29.265Z,67.35
2023-01-30T15:35:15.980Z,66.87
2023-01-30T15:37:51.431Z,66.55
2023-01-30T15:40:20.668Z,66.46
2023-01-30T15:42:54.106Z,66.91
2023-01-30T15:45:58.432Z,67.03
2023-01-30T15:48:33.504Z,67.35
2023-01-30T15:51:00.941Z,66.60
2023-01-30T15:53:41.768Z,66.41
2023-01-30T15:56:10.932Z,66.32
2023-01-30T15:58:42.158Z,67.11
2023-01-30T16:01:10.982Z,66.59
2023-01-30T16:03:42.602Z,66.72
2023-01-30T16:06:41.229Z,66.76
2023-01-30T16:09:22.120Z,66.63
2023-01-30T16:11:48.764Z,66.54
2023-01-30T16:14:17.573Z,66.30
2023-01-30T16:17:06.758Z,66.72
2023-01-30T16:19:35.780Z,66.75
2023-01-30T16:22:05.240Z,66.65
2023-01-30T16:24:37.046Z,66.72
2023-01-30T16:27:07.373Z,66.81
2023-01-30T16:29:51.075Z,67.05
2023-01-30T16:32:19.524Z,67.31
2023-01-30T16:34:45.934Z,66.97
2023-01-30T16:37:18.463Z,67.30
2023-01-30T16:39:48.458Z,67.58
2023-01-30T16:42:28.954Z,67.43
2023-01-30T16:45:13.562Z,67.59
2023-01-30T16:47:40.911Z,67.46
2023-01-30T16:50:21.298Z,67.46
2023-01-30T16:52:51.746Z,67.14
2023-01-30T16:55:24.381Z,67.53
2023-01-30T16:57:54.733Z,68.21
2023-01-30T17:00:36.140Z,68.16
2023-01-30T17:03:05.926Z,68.07
2023-01-30T17:05:40.910Z,68.49
2023-01-30T17:08:45.510Z,69.55
2023-01-30T17:11:29.898Z,69.20
2023-01-30T17:14:20.181Z,69.43
2023-01-30T17:17:04.722Z,69.20
2023-01-30T17:19:31.159Z,69.44
2023-01-30T17:21:58.980Z,69.93
2023-01-30T17:24:26.703Z,69.96
2023-01-30T17:27:00.123Z,70.20
2023-01-30T17:29:41.898Z,70.35
2023-01-30T17:32:15.157Z,69.93
2023-01-30T17:34:41.745Z,70.27
2023-01-30T17:37:16.500Z,70.20
2023-01-30T17:39:42.885Z,70.75
2023-01-30T17:42:10.301Z,71.03
2023-01-30T17:44:36.848Z,71.19
2023-01-30T17:47:03.368Z,71.06
2023-01-30T17:49:29.806Z,71.23
2023-01-30T17:51:59.208Z,70.81
2023-01-30T17:54:26.887Z,70.87
2023-01-30T17:57:00.545Z,70.98
2023-01-30T17:59:27.093Z,70.88
2023-01-30T18:01:53.725Z,71.30
2023-01-30T18:04:20.722Z,71.53
2023-01-30T18:06:50.472Z,71.33
2023-01-30T18:09:20.311Z,71.06
2023-01-30T18:11:47.829Z,70.93
2023-01-30T18:14:14.493Z,71.45
2023-01-30T18:16:41.333Z,71.18
2023-01-30T18:19:12.167Z,71.44
2023-01-30T18:21:39.964Z,70.79
2023-01-30T18:24:07.391Z,71.24
2023-01-30T18:26:34.707Z,71.07
2023-01-30T18:29:01.444Z,71.24
2023-01-30T18:31:32.119Z,70.70
2023-01-30T18:33:58.744Z,71.46
2023-01-30T18:36:25.332Z,71.58
2023-01-30T18:38:53.406Z,71.95
2023-01-30T18:41:22.996Z,71.59
2023-01-30T18:44:00.335Z,71.95
2023-01-30T18:46:27.576Z,72.29
2023-01-30T18:48:54.972Z,72.22
2023-01-30T18:51:26.535Z,72.96
2023-01-30T18:53:54.220Z,73.20
2023-01-30T18:56:26.124Z,72.89
2023-01-30T18:58:54.544Z,73.41
2023-01-30T19:01:23.697Z,73.54
2023-01-30T19:03:54.478Z,73.14
2023-01-30T19:06:20.991Z,73.69
2023-01-30T19:08:47.541Z,73.36
2023-01-30T19:11:34.556Z,73.79
2023-01-30T19:14:01.648Z,73.59
2023-01-30T19:16:30.441Z,74.15
2023-01-30T19:18:57.132Z,74.14
2023-01-30T19:21:24.790Z,74.20
2023-01-30T19:23:51.344Z,74.64
2023-01-30T19:26:20.244Z,74.56
2023-01-30T19:28:47.378Z,75.54
2023-01-30T19:31:19.961Z,75.90
2023-01-30T19:33:48.294Z,75.97
2023-01-30T19:36:20.815Z,75.87
2023-01-30T19:38:48.399Z,76.42
2023-01-30T19:41:17.607Z,76.52
2023-01-30T19:43:44.188Z,76.08
2023-01-30T19:46:11.980Z,76.59
2023-01-30T19:48:41.093Z,77.22
2023-01-30T19:51:20.893Z,77.72
2023-01-30T19:53:53.484Z,77.78
2023-01-30T19:56:22.123Z,77.65
2023-01-30T19:58:51.971Z,77.57
2023-01-30T20:01:20.450Z,77.95
2023-01-30T20:03:47.240Z,78.09
2023-01-30T20:06:29.247Z,79.20
2023-01-30T20:08:59.789Z,78.98
2023-01-30T20:11:26.681Z,78.95
2023-01-30T20:13:53.589Z,78.65
2023-01-30T20:16:22.402Z,78.52
2023-01-30T20:18:55.594Z,78.54
2023-01-30T20:21:22.975Z,78.51
2023-01-30T20:23:49.950Z,79.31
2023-01-30T20:26:19.982Z,79.26
2023-01-30T20:28:46.477Z,79.35
2023-01-30T20:31:15.847Z,79.33
2023-01-30T20:33:42.760Z,79.00
2023-01-30T20:36:12.312Z,79.25
2023-01-30T20:38:42.007Z,79.92
2023-01-30T20:41:14.899Z,80.33
2023-01-30T20:43:46.650Z,80.46
2023-01-30T20:46:38.713Z,80.43
2023-01-30T20:49:05.624Z,80.56
2023-01-30T20:51:32.885Z,79.90
2023-01-30T20:54:02.673Z,81.31
2023-01-30T20:56:35.090Z,80.65
2023-01-30T20:59:02.774Z,81.55
2023-01-30T21:01:29.716Z,82.04
2023-01-30T21:03:56.662Z,81.75
2023-01-30T21:06:41.333Z,81.71
2023-01-30T21:09:17.696Z,81.27
2023-01-30T21:11:44.397Z,81.56
2023-01-30T21:14:12.710Z,81.77
2023-01-30T21:16:39.583Z,82.10
2023-01-30T21:19:08.337Z,82.06
2023-01-30T21:21:40.935Z,82.20
2023-01-30T21:24:12.184Z,82.57
2023-01-30T21:26:41.653Z,82.71
2023-01-30T21:29:08.867Z,82.75
2023-01-30T21:31:37.446Z,82.10
2023-01-30T21:34:04.908Z,82.60
2023-01-30T21:36:31.852Z,82.34
2023-01-30T21:39:16.826Z,82.53
2023-01-30T21:41:50.795Z,81.82
2023-01-30T21:44:19.187Z,82.11
2023-01-30T21:46:48.919Z,82.49
2023-01-30T21:49:17.063Z,82.63
2023-01-30T21:51:48.208Z,82.55
2023-01-30T21:54:16.712Z,82.42
2023-01-30T21:56:43.697Z,82.54
2023-01-30T21:59:10.333Z,82.74
2023-01-30T22:01:37.810Z,83.36
2023-01-30T22:04:06.545Z,82.63
2023-01-30T22:06:33.041Z,82.60
2023-01-30T22:09:01.235Z,82.72
2023-01-30T22:11:28.749Z,83.20
2023-01-30T22:13:56.521Z,83.82
2023-01-30T22:16:25.534Z,84.19
2023-01-30T22:18:54.571Z,83.76
2023-01-30T22:21:23.134Z,83.88
2023-01-30T22:23:51.579Z,83.65
2023-01-30T22:26:19.784Z,83.63
2023-01-30T22:28:46.962Z,83.98
2023-01-30T22:31:17.715Z,83.46
2023-01-30T22:33:50.481Z,83.72
2023-01-30T22:36:17.680Z,84.39
2023-01-30T22:38:46.291Z,84.25
2023-01-30T22:41:24.632Z,83.91
2023-01-30T22:43:52.709Z,84.41
2023-01-30T22:46:19.964Z,83.85
2023-01-30T22:48:46.889Z,84.40
2023-01-30T22:51:18.503Z,84.67
2023-01-30T22:53:47.481Z,85.21
2023-01-30T22:56:16.444Z,84.34
2023-01-30T22:58:43.588Z,84.60
2023-01-30T23:01:17.795Z,84.70
2023-01-30T23:03:45.286Z,84.88
2023-01-30T23:06:14.238Z,84.81
2023-01-30T23:08:42.672Z,84.86
2023-01-30T23:11:13.797Z,84.43
2023-01-30T23:13:42.246Z,84.00
2023-01-30T23:16:09.144Z,84.49
2023-01-30T23:18:54.435Z,84.28
2023-01-30T23:21:24.642Z,84.37
2023-01-30T23:23:53.356Z,84.00
2023-01-30T23:26:21.004Z,84.11
2023-01-30T23:28:47.573Z,84.80
2023-01-30T23:31:17.939Z,84.57
2023-01-30T23:33:45.170Z,84.33
2023-01-30T23:36:13.400Z,83.81
2023-01-30T23:38:40.230Z,84.67
2023-01-30T23:41:14.849Z,84.83
2023-01-30T23:43:43.640Z,84.69
2023-01-30T23:46:19.050Z,84.76
2023-01-30T23:48:47.322Z,84.74
2023-01-30T23:51:16.404Z,84.73
2023-01-30T23:53:43.453Z,84.25
2023-01-30T23:56:10.671Z,84.83
2023-01-30T23:58:37.782Z,84.68
